createdAt,value
2022-07-28T00:01:18.559Z,3.40
2022-07-28T00:03:49.156Z,3.50
2022-07-28T00:06:17.569Z,3.72
2022-07-28T00:08:45.346Z,3.53
2022-07-28T00:11:13.598Z,3.55
2022-07-28T00:13:41.463Z,3.53
2022-07-28T00:16:09.559Z,4.35
2022-07-28T00:18:37.469Z,3.38
2022-07-28T00:21:05.353Z,3.97
2022-07-28T00:23:39.515Z,3.85
2022-07-28T00:26:10.138Z,3.40
2022-07-28T00:28:39.064Z,3.45
2022-07-28T00:31:11.017Z,3.53
2022-07-28T00:33:41.001Z,3.70
2022-07-28T00:36:11.610Z,3.55
2022-07-28T00:38:44.061Z,3.17
2022-07-28T00:41:13.369Z,3.43
2022-07-28T00:43:43.824Z,4.05
2022-07-28T00:46:13.815Z,3.78
2022-07-28T00:48:48.340Z,3.55
2022-07-28T00:51:17.569Z,4.03
2022-07-28T00:53:46.282Z,3.97
2022-07-28T00:56:14.880Z,4.55
2022-07-28T00:58:43.871Z,3.40
2022-07-28T01:01:15.836Z,3.40
2022-07-28T01:03:56.378Z,3.30
2022-07-28T01:06:52.337Z,4.00
2022-07-28T01:09:30.319Z,3.67
2022-07-28T01:12:09.828Z,4.50
2022-07-28T01:14:45.349Z,4.05
2022-07-28T01:17:44.629Z,3.60
2022-07-28T01:20:16.599Z,3.92
2022-07-28T01:23:12.971Z,4.03
2022-07-28T01:26:01.149Z,3.92
2022-07-28T01:29:06.913Z,3.45
2022-07-28T01:31:41.423Z,3.80
2022-07-28T01:34:17.511Z,4.00
2022-07-28T01:36:52.243Z,3.63
2022-07-28T01:39:22.172Z,3.83
2022-07-28T01:41:52.717Z,4.53
2022-07-28T01:44:25.195Z,3.85
2022-07-28T01:46:54.756Z,4.45
2022-07-28T01:49:26.547Z,4.10
2022-07-28T01:51:56.722Z,3.95
2022-07-28T01:54:28.574Z,3.67
2022-07-28T01:56:59.492Z,4.15
2022-07-28T01:59:30.476Z,3.85
2022-07-28T02:02:02.107Z,3.42
2022-07-28T02:04:33.866Z,4.45
2022-07-28T02:07:04.023Z,3.63
2022-07-28T02:09:34.622Z,4.35
2022-07-28T02:12:04.560Z,3.92
2022-07-28T02:14:36.451Z,3.85
2022-07-28T02:17:13.328Z,4.47
2022-07-28T02:19:43.625Z,3.50
2022-07-28T02:22:12.401Z,4.57
2022-07-28T02:24:41.901Z,3.88
2022-07-28T02:27:24.720Z,4.25
2022-07-28T02:30:05.060Z,4.30
2022-07-28T02:32:42.209Z,3.58
2022-07-28T02:35:27.909Z,3.38
2022-07-28T02:38:05.272Z,4.70
2022-07-28T02:40:38.492Z,3.17
2022-07-28T02:43:15.005Z,4.13
2022-07-28T02:45:49.241Z,4.20
2022-07-28T02:48:21.617Z,4.28
2022-07-28T02:50:50.950Z,5.00
2022-07-28T02:53:21.387Z,4.78
2022-07-28T02:55:51.231Z,4.57
2022-07-28T02:58:22.359Z,4.57
2022-07-28T03:00:53.623Z,4.63
2022-07-28T03:03:23.764Z,3.70
2022-07-28T03:05:52.268Z,3.90
2022-07-28T03:08:20.516Z,4.70
2022-07-28T03:10:48.742Z,4.25
2022-07-28T03:13:17.274Z,4.50
2022-07-28T03:15:45.315Z,3.78
2022-07-28T03:18:13.055Z,4.15
2022-07-28T03:20:41.258Z,3.80
2022-07-28T03:23:10.700Z,4.38
2022-07-28T03:25:44.897Z,4.05
2022-07-28T03:28:19.585Z,4.57
2022-07-28T03:30:56.066Z,4.28
2022-07-28T03:33:24.459Z,3.90
2022-07-28T03:35:57.130Z,5.28
2022-07-28T03:38:28.895Z,4.43
2022-07-28T03:40:58.757Z,3.78
2022-07-28T03:43:27.535Z,3.47
2022-07-28T03:45:55.419Z,3.58
2022-07-28T03:48:32.094Z,3.92
2022-07-28T03:51:00.604Z,3.53
2022-07-28T03:53:29.806Z,3.80
2022-07-28T03:55:58.469Z,3.55
2022-07-28T03:58:28.582Z,4.50
2022-07-28T04:00:58.407Z,3.65
2022-07-28T04:03:43.083Z,3.55
2022-07-28T04:06:12.950Z,3.03
2022-07-28T04:08:41.753Z,3.42
2022-07-28T04:11:09.537Z,3.45
2022-07-28T04:13:37.485Z,3.20
2022-07-28T04:16:07.211Z,3.78
2022-07-28T04:18:36.303Z,3.33
2022-07-28T04:21:04.706Z,3.58
2022-07-28T04:23:32.925Z,3.25
2022-07-28T04:26:01.191Z,2.85
2022-07-28T04:28:29.059Z,3.15
2022-07-28T04:30:57.362Z,3.05
2022-07-28T04:33:25.301Z,3.80
2022-07-28T04:35:53.312Z,3.22
2022-07-28T04:38:21.415Z,3.65
2022-07-28T04:40:50.707Z,3.08
2022-07-28T04:43:18.648Z,4.82
2022-07-28T04:45:54.153Z,3.80
2022-07-28T04:48:25.387Z,3.65
2022-07-28T04:50:53.522Z,4.00
2022-07-28T04:53:22.755Z,3.50
2022-07-28T04:55:54.778Z,3.75
2022-07-28T04:58:23.654Z,3.40
2022-07-28T05:00:52.725Z,3.70
2022-07-28T05:03:21.775Z,3.63
2022-07-28T05:05:53.899Z,4.40
2022-07-28T05:08:25.442Z,3.92
2022-07-28T05:10:56.228Z,3.72
2022-07-28T05:13:28.898Z,4.05
2022-07-28T05:16:02.231Z,3.53
2022-07-28T05:18:30.029Z,3.20
2022-07-28T05:20:58.519Z,5.68
2022-07-28T05:23:26.373Z,3.20
2022-07-28T05:25:54.826Z,4.13
2022-07-28T05:28:22.622Z,2.88
2022-07-28T05:30:50.602Z,3.28
2022-07-28T05:33:18.940Z,3.60
2022-07-28T05:35:54.169Z,3.35
2022-07-28T05:38:22.221Z,3.53
2022-07-28T05:40:51.055Z,3.35
2022-07-28T05:43:20.256Z,3.70
2022-07-28T05:45:49.052Z,2.90
2022-07-28T05:48:19.101Z,3.55
2022-07-28T05:50:48.128Z,3.08
2022-07-28T05:53:16.755Z,3.20
2022-07-28T05:55:59.761Z,3.40
2022-07-28T05:58:30.925Z,3.22
2022-07-28T06:01:01.186Z,2.85
2022-07-28T06:03:32.257Z,3.03
2022-07-28T06:06:16.022Z,2.90
2022-07-28T06:08:46.407Z,3.33
2022-07-28T06:11:22.556Z,2.70
2022-07-28T06:13:52.609Z,3.22
2022-07-28T06:16:23.208Z,2.80
2022-07-28T06:18:52.011Z,3.08
2022-07-28T06:21:22.236Z,3.08
2022-07-28T06:23:50.836Z,2.90
2022-07-28T06:26:18.593Z,3.05
2022-07-28T06:28:46.322Z,2.95
2022-07-28T06:31:14.498Z,3.50
2022-07-28T06:33:43.194Z,3.20
2022-07-28T06:36:11.581Z,2.80
2022-07-28T06:38:39.351Z,2.67
2022-07-28T06:41:07.610Z,3.53
2022-07-28T06:43:38.958Z,3.30
2022-07-28T06:46:08.080Z,3.28
2022-07-28T06:48:39.676Z,3.15
2022-07-28T06:51:07.765Z,2.75
2022-07-28T06:53:36.075Z,2.63
2022-07-28T06:56:05.447Z,2.85
2022-07-28T06:58:34.366Z,3.00
2022-07-28T07:01:07.406Z,3.60
2022-07-28T07:06:03.644Z,3.55
2022-07-28T07:08:31.228Z,3.95
2022-07-28T07:10:59.350Z,3.90
2022-07-28T07:13:27.290Z,3.10
2022-07-28T07:15:55.429Z,3.10
2022-07-28T07:18:23.368Z,3.15
2022-07-28T07:20:51.665Z,3.22
2022-07-28T07:23:19.601Z,3.97
2022-07-28T07:25:47.779Z,4.18
2022-07-28T07:28:15.540Z,4.00
2022-07-28T07:30:45.042Z,3.55
2022-07-28T07:33:13.275Z,4.50
2022-07-28T07:35:41.420Z,3.47
2022-07-28T07:38:09.428Z,3.90
2022-07-28T07:40:38.251Z,3.67
2022-07-28T07:43:06.020Z,3.30
2022-07-28T07:45:34.492Z,3.53
2022-07-28T07:48:03.563Z,3.75
2022-07-28T07:50:31.372Z,4.32
2022-07-28T07:52:59.216Z,3.80
2022-07-28T07:55:27.889Z,3.45
2022-07-28T07:58:02.879Z,3.85
2022-07-28T08:00:30.653Z,3.88
2022-07-28T08:03:00.297Z,3.40
2022-07-28T08:05:34.690Z,3.42
2022-07-28T08:08:05.629Z,3.25
2022-07-28T08:10:38.298Z,3.65
2022-07-28T08:13:07.640Z,3.63
2022-07-28T08:15:36.284Z,3.50
2022-07-28T08:18:04.942Z,3.67
2022-07-28T08:20:33.227Z,3.33
2022-07-28T08:23:01.392Z,3.33
2022-07-28T08:25:29.427Z,3.60
2022-07-28T08:27:57.635Z,4.15
2022-07-28T08:30:30.242Z,2.92
2022-07-28T08:33:02.398Z,2.95
2022-07-28T08:35:33.766Z,3.22
2022-07-28T08:38:06.280Z,3.28
2022-07-28T08:40:38.193Z,3.25
2022-07-28T08:43:30.773Z,3.58
2022-07-28T08:46:01.325Z,3.70
2022-07-28T08:48:31.491Z,3.03
2022-07-28T08:51:05.323Z,3.05
2022-07-28T08:53:35.865Z,3.45
2022-07-28T08:56:07.083Z,3.65
2022-07-28T08:58:37.420Z,3.45
2022-07-28T09:01:08.639Z,3.65
2022-07-28T09:03:39.115Z,4.15
2022-07-28T09:06:08.051Z,3.00
2022-07-28T09:08:36.225Z,3.70
2022-07-28T09:11:06.218Z,3.50
2022-07-28T09:13:35.233Z,3.10
2022-07-28T09:16:04.221Z,3.00
2022-07-28T09:18:32.578Z,3.38
2022-07-28T09:21:00.351Z,3.47
2022-07-28T09:23:44.467Z,3.78
2022-07-28T09:26:13.505Z,3.78
2022-07-28T09:28:52.537Z,2.92
2022-07-28T09:31:22.754Z,3.47
2022-07-28T09:34:02.980Z,3.67
2022-07-28T09:36:41.593Z,4.18
2022-07-28T09:39:10.741Z,3.40
2022-07-28T09:41:55.983Z,3.08
2022-07-28T09:44:27.091Z,3.70
2022-07-28T09:46:56.580Z,3.50
2022-07-28T09:49:44.413Z,3.08
2022-07-28T09:52:12.735Z,3.42
2022-07-28T09:55:00.889Z,3.42
2022-07-28T09:57:30.919Z,3.30
2022-07-28T10:00:03.250Z,3.92
2022-07-28T10:02:39.510Z,3.63
2022-07-28T10:05:07.739Z,4.03
2022-07-28T10:07:48.682Z,3.80
2022-07-28T10:10:20.684Z,3.85
2022-07-28T10:12:48.996Z,2.92
2022-07-28T10:15:46.811Z,3.45
2022-07-28T10:18:20.052Z,3.45
2022-07-28T10:20:52.483Z,3.58
2022-07-28T10:23:21.819Z,2.95
2022-07-28T10:25:51.790Z,3.78
2022-07-28T10:28:23.244Z,3.65
2022-07-28T10:30:58.626Z,3.42
2022-07-28T10:33:31.986Z,3.08
2022-07-28T10:36:01.378Z,3.40
2022-07-28T10:38:35.829Z,3.17
2022-07-28T10:41:07.100Z,3.13
2022-07-28T10:43:36.386Z,3.63
2022-07-28T10:46:16.006Z,3.63
2022-07-28T10:48:45.072Z,4.85
2022-07-28T10:51:13.935Z,3.67
2022-07-28T10:54:10.684Z,3.75
2022-07-28T10:59:58.161Z,3.70
2022-07-28T11:02:48.881Z,2.30
2022-07-28T11:05:40.058Z,2.88
2022-07-28T11:08:29.298Z,3.63
2022-07-28T11:11:07.472Z,3.17
2022-07-28T11:13:41.021Z,4.20
2022-07-28T11:16:15.863Z,3.30
2022-07-28T11:19:02.215Z,2.53
2022-07-28T11:21:40.897Z,3.45
2022-07-28T11:24:13.136Z,3.28
2022-07-28T11:26:45.933Z,3.83
2022-07-28T11:29:14.901Z,3.63
2022-07-28T11:31:46.857Z,3.53
2022-07-28T11:34:20.226Z,3.43
2022-07-28T11:37:15.398Z,3.20
2022-07-28T11:39:44.255Z,3.20
2022-07-28T11:42:31.315Z,3.22
2022-07-28T11:45:24.355Z,3.70
2022-07-28T11:48:25.214Z,2.92
2022-07-28T11:51:12.862Z,3.33
2022-07-28T11:53:49.008Z,3.10
2022-07-28T11:56:24.977Z,3.60
2022-07-28T11:59:06.012Z,3.75
2022-07-28T12:01:38.399Z,3.47
2022-07-28T12:04:15.984Z,4.10
2022-07-28T12:06:49.390Z,4.13
2022-07-28T12:09:25.309Z,4.40
2022-07-28T12:11:55.877Z,3.63
2022-07-28T12:14:24.637Z,5.05
2022-07-28T12:16:53.304Z,4.40
2022-07-28T12:19:22.448Z,3.88
2022-07-28T12:21:55.661Z,3.58
2022-07-28T12:24:30.595Z,3.40
2022-07-28T12:27:00.845Z,3.97
2022-07-28T12:29:36.023Z,3.78
2022-07-28T12:32:05.943Z,3.22
2022-07-28T12:34:35.161Z,3.70
2022-07-28T12:37:09.684Z,4.03
2022-07-28T12:39:43.430Z,3.83
2022-07-28T12:42:13.492Z,3.65
2022-07-28T12:44:43.117Z,4.25
2022-07-28T12:47:13.134Z,3.30
2022-07-28T12:49:43.035Z,4.18
2022-07-28T12:52:16.951Z,3.58
2022-07-28T12:54:52.968Z,4.10
2022-07-28T12:57:48.614Z,4.45
2022-07-28T13:00:20.851Z,3.90
2022-07-28T13:02:51.319Z,3.83
2022-07-28T13:05:57.225Z,3.85
2022-07-28T13:08:27.673Z,3.92
2022-07-28T13:10:59.132Z,3.53
2022-07-28T13:13:27.314Z,3.63
2022-07-28T13:16:13.754Z,3.88
2022-07-28T13:18:44.236Z,4.00
2022-07-28T13:21:12.298Z,3.92
2022-07-28T13:23:40.605Z,3.85
2022-07-28T13:26:09.322Z,3.88
2022-07-28T13:28:37.108Z,4.15
2022-07-28T13:31:05.765Z,3.40
2022-07-28T13:33:33.613Z,3.80
2022-07-28T13:36:01.458Z,3.45
2022-07-28T13:38:30.051Z,3.97
2022-07-28T13:40:57.893Z,3.70
2022-07-28T13:43:36.413Z,3.72
2022-07-28T13:46:04.767Z,3.42
2022-07-28T13:48:32.992Z,2.95
2022-07-28T13:51:01.784Z,3.53
2022-07-28T13:53:29.641Z,3.15
2022-07-28T13:55:57.367Z,3.35
2022-07-28T13:58:25.108Z,3.78
2022-07-28T14:00:55.114Z,3.25
2022-07-28T14:03:24.274Z,3.17
2022-07-28T14:05:53.114Z,3.53
2022-07-28T14:08:21.534Z,3.97
2022-07-28T14:13:28.253Z,3.33
2022-07-28T14:16:02.125Z,3.83
2022-07-28T14:18:32.921Z,3.50
2022-07-28T14:21:00.888Z,3.53
2022-07-28T14:23:28.738Z,4.03
2022-07-28T14:26:18.430Z,4.60
2022-07-28T14:28:45.478Z,4.55
2022-07-28T14:31:13.345Z,3.88
2022-07-28T14:33:46.352Z,3.33
2022-07-28T14:36:17.574Z,3.95
2022-07-28T14:38:54.758Z,4.32
2022-07-28T14:41:23.597Z,3.67
2022-07-28T14:43:52.973Z,4.00
2022-07-28T14:46:22.276Z,3.63
2022-07-28T14:48:58.371Z,3.70
2022-07-28T14:51:26.211Z,4.45
2022-07-28T14:53:57.146Z,4.03
2022-07-28T14:56:25.392Z,3.58
2022-07-28T14:58:53.042Z,3.90
2022-07-28T15:01:21.350Z,3.25
2022-07-28T15:03:49.116Z,4.22
2022-07-28T15:06:17.070Z,3.78
2022-07-28T15:08:45.365Z,3.55
2022-07-28T15:11:13.412Z,4.28
2022-07-28T15:13:41.204Z,3.97
2022-07-28T15:16:09.057Z,3.58
2022-07-28T15:18:37.221Z,3.95
2022-07-28T15:21:08.510Z,4.03
2022-07-28T15:23:36.768Z,3.63
2022-07-28T15:26:04.594Z,3.90
2022-07-28T15:28:32.906Z,3.75
2022-07-28T15:31:01.665Z,3.50
2022-07-28T15:33:29.888Z,3.33
2022-07-28T15:36:00.855Z,3.65
2022-07-28T15:38:31.611Z,3.20
2022-07-28T15:41:00.110Z,3.40
2022-07-28T15:43:29.241Z,3.50
2022-07-28T15:45:57.987Z,3.50
2022-07-28T15:48:26.539Z,3.67
2022-07-28T15:50:54.365Z,3.90
2022-07-28T15:53:22.921Z,3.47
2022-07-28T15:55:51.872Z,3.55
2022-07-28T15:58:21.575Z,2.60
2022-07-28T16:00:50.511Z,3.28
2022-07-28T16:03:19.457Z,3.30
2022-07-28T16:05:50.723Z,3.55
2022-07-28T16:08:22.831Z,3.38
2022-07-28T16:10:54.216Z,2.83
2022-07-28T16:13:35.649Z,3.20
2022-07-28T16:16:07.353Z,3.30
2022-07-28T16:18:38.448Z,3.33
2022-07-28T16:21:07.731Z,3.42
2022-07-28T16:23:36.058Z,3.50
2022-07-28T16:26:07.883Z,3.58
2022-07-28T16:28:36.803Z,3.47
2022-07-28T16:31:05.243Z,3.85
2022-07-28T16:33:33.850Z,3.00
2022-07-28T16:36:03.092Z,3.30
2022-07-28T16:38:31.413Z,3.42
2022-07-28T16:40:59.536Z,3.72
2022-07-28T16:43:27.352Z,3.72
2022-07-28T16:45:55.537Z,3.38
2022-07-28T16:48:23.502Z,3.28
2022-07-28T16:50:51.956Z,3.15
2022-07-28T16:53:20.683Z,2.63
2022-07-28T16:55:49.088Z,3.70
2022-07-28T16:58:18.654Z,3.03
2022-07-28T17:00:47.017Z,3.05
2022-07-28T17:03:17.057Z,3.25
2022-07-28T17:05:45.348Z,2.85
2022-07-28T17:08:13.271Z,2.90
2022-07-28T17:10:41.383Z,3.65
2022-07-28T17:13:12.059Z,3.47
2022-07-28T17:15:41.066Z,2.67
2022-07-28T17:18:09.045Z,3.03
2022-07-28T17:20:39.975Z,2.85
2022-07-28T17:23:08.334Z,2.70
2022-07-28T17:28:25.511Z,2.95
2022-07-28T17:30:53.397Z,3.67
2022-07-28T17:33:21.736Z,2.88
2022-07-28T17:35:50.061Z,3.40
2022-07-28T17:38:21.541Z,3.35
2022-07-28T17:40:51.284Z,3.30
2022-07-28T17:43:20.508Z,2.97
2022-07-28T17:45:49.738Z,3.35
2022-07-28T17:48:18.674Z,4.07
2022-07-28T17:50:46.711Z,3.80
2022-07-28T17:53:15.858Z,2.83
2022-07-28T17:55:47.574Z,2.65
2022-07-28T17:58:32.300Z,3.65
2022-07-28T18:01:11.183Z,3.22
2022-07-28T18:03:56.963Z,2.83
2022-07-28T18:06:32.192Z,3.13
2022-07-28T18:09:06.427Z,2.78
2022-07-28T18:11:56.736Z,3.17
2022-07-28T18:14:30.350Z,3.03
2022-07-28T18:16:59.511Z,4.10
2022-07-28T18:19:28.472Z,3.40
2022-07-28T18:21:56.284Z,4.25
2022-07-28T18:24:24.244Z,3.78
2022-07-28T18:26:52.919Z,3.53
2022-07-28T18:29:21.744Z,3.17
2022-07-28T18:31:51.839Z,3.42
2022-07-28T18:34:23.112Z,3.70
2022-07-28T18:36:53.981Z,3.70
2022-07-28T18:39:22.847Z,3.33
2022-07-28T18:41:56.074Z,3.72
2022-07-28T18:44:24.364Z,3.35
2022-07-28T18:46:52.602Z,3.88
2022-07-28T18:49:21.713Z,4.10
2022-07-28T18:51:49.573Z,4.10
2022-07-28T18:54:27.133Z,3.85
2022-07-28T18:56:57.022Z,4.28
2022-07-28T18:59:25.520Z,4.32
2022-07-28T19:01:53.330Z,3.22
2022-07-28T19:04:21.668Z,4.25
2022-07-28T19:06:50.005Z,3.13
2022-07-28T19:09:18.531Z,4.43
2022-07-28T19:11:46.977Z,4.38
2022-07-28T19:14:16.443Z,4.47
2022-07-28T19:16:44.681Z,3.78
2022-07-28T19:19:14.572Z,3.88
2022-07-28T19:21:43.575Z,4.05
2022-07-28T19:24:14.165Z,4.32
2022-07-28T19:26:44.508Z,4.47
2022-07-28T19:29:13.755Z,4.20
2022-07-28T19:31:42.245Z,3.33
2022-07-28T19:34:11.522Z,3.60
2022-07-28T19:36:41.853Z,4.07
2022-07-28T19:39:12.179Z,3.83
2022-07-28T19:41:41.541Z,3.67
2022-07-28T19:44:10.142Z,4.65
2022-07-28T19:46:39.374Z,4.60
2022-07-28T19:49:09.095Z,4.45
2022-07-28T19:51:38.116Z,4.78
2022-07-28T19:54:06.413Z,4.57
2022-07-28T19:56:34.329Z,4.25
2022-07-28T19:59:02.699Z,4.78
2022-07-28T20:01:31.035Z,4.10
2022-07-28T20:04:01.894Z,4.88
2022-07-28T20:09:01.652Z,4.25
2022-07-28T20:11:30.120Z,3.63
2022-07-28T20:13:58.324Z,4.35
2022-07-28T20:16:26.480Z,4.55
2022-07-28T20:18:54.370Z,4.30
2022-07-28T20:21:24.172Z,4.28
2022-07-28T20:23:57.038Z,4.35
2022-07-28T20:26:27.228Z,4.47
2022-07-28T20:28:58.594Z,4.55
2022-07-28T20:31:26.519Z,4.85
2022-07-28T20:33:54.385Z,4.90
2022-07-28T20:36:26.224Z,5.95
2022-07-28T20:38:57.396Z,5.05
2022-07-28T20:41:25.968Z,4.03
2022-07-28T20:44:11.640Z,4.43
2022-07-28T20:46:42.521Z,4.60
2022-07-28T20:49:11.182Z,4.57
2022-07-28T20:51:39.109Z,4.95
2022-07-28T20:54:06.923Z,4.88
2022-07-28T20:56:35.098Z,5.18
2022-07-28T20:59:06.776Z,5.15
2022-07-28T21:01:35.400Z,5.15
2022-07-28T21:04:03.315Z,4.72
2022-07-28T21:06:31.967Z,4.93
2022-07-28T21:09:01.916Z,5.35
2022-07-28T21:11:35.182Z,5.00
2022-07-28T21:14:04.724Z,4.25
2022-07-28T21:16:32.479Z,3.80
2022-07-28T21:19:02.179Z,4.65
2022-07-28T21:21:30.004Z,4.65
2022-07-28T21:23:57.797Z,4.28
2022-07-28T21:26:25.560Z,4.45
2022-07-28T21:29:12.569Z,4.50
2022-07-28T21:32:03.722Z,3.92
2022-07-28T21:34:34.865Z,4.40
2022-07-28T21:37:04.128Z,4.20
2022-07-28T21:39:34.203Z,4.10
2022-07-28T21:42:05.716Z,3.95
2022-07-28T21:44:35.465Z,4.65
2022-07-28T21:47:04.641Z,5.18
2022-07-28T21:49:32.775Z,4.40
2022-07-28T21:52:01.193Z,10.48
2022-07-28T21:54:29.047Z,11.40
2022-07-28T21:56:56.979Z,9.07
2022-07-28T21:59:25.367Z,4.85
2022-07-28T22:01:53.668Z,4.80
2022-07-28T22:04:21.852Z,4.72
2022-07-28T22:06:49.993Z,4.95
2022-07-28T22:09:18.285Z,6.10
2022-07-28T22:11:46.723Z,5.03
2022-07-28T22:14:14.752Z,5.03
2022-07-28T22:16:43.183Z,2.63
2022-07-28T22:19:12.599Z,3.97
2022-07-28T22:21:40.768Z,2.65
2022-07-28T22:24:09.152Z,3.63
2022-07-28T22:26:36.975Z,2.35
2022-07-28T22:29:05.177Z,1.98
2022-07-28T22:31:33.033Z,1.50
2022-07-28T22:34:00.852Z,1.50
2022-07-28T22:36:28.821Z,1.35
2022-07-28T22:38:56.794Z,1.20
2022-07-28T22:41:24.895Z,0.90
2022-07-28T22:43:55.213Z,0.65
2022-07-28T22:46:23.626Z,0.88
2022-07-28T22:48:51.587Z,1.17
2022-07-28T22:51:19.474Z,0.60
2022-07-28T22:53:47.334Z,0.63
2022-07-28T22:56:26.260Z,0.70
2022-07-28T22:59:03.409Z,0.95
2022-07-28T23:01:31.356Z,1.08
2022-07-28T23:03:59.875Z,1.00
2022-07-28T23:06:28.560Z,1.15
2022-07-28T23:08:56.828Z,1.27
2022-07-28T23:11:24.720Z,1.48
2022-07-28T23:13:52.534Z,1.17
2022-07-28T23:16:20.494Z,1.20
2022-07-28T23:18:48.769Z,1.35
2022-07-28T23:21:17.049Z,1.25
2022-07-28T23:23:45.091Z,1.90
2022-07-28T23:26:13.321Z,1.52
2022-07-28T23:28:41.496Z,1.85
2022-07-28T23:31:09.847Z,1.92
2022-07-28T23:33:56.405Z,1.95
2022-07-28T23:36:27.827Z,1.88
2022-07-28T23:38:57.977Z,2.60
2022-07-28T23:41:27.119Z,2.40
2022-07-28T23:43:55.050Z,2.78
2022-07-28T23:46:23.407Z,2.80
2022-07-28T23:48:51.977Z,1.83
2022-07-28T23:51:21.965Z,1.92
2022-07-28T23:53:55.841Z,2.10
2022-07-28T23:56:24.246Z,2.20
2022-07-28T23:58:52.110Z,2.30
